Time;durP1;ratioP1;P1;durP2;ratioP2;P2;SDS_P1;SDS_P2;PMS_P1;PMS_P2;Temp;Humidity;BMP_temperature;BMP_pressure;BME280_temperature;BME280_humidity;BME280_pressure;Samples;Min_cycle;Max_cycle;Signal;HPM_P1;HPM_P2
2022/11/29 00:02:23;;;;;;;29.20;13.82;;;;;;;;;;5049310;28;20196;-65
2022/11/29 00:04:48;;;;;;;29.58;14.32;;;;;;;;;;5049440;28;20312;-67
2022/11/29 00:07:14;;;;;;;33.00;14.55;;;;;;;;;;5049000;28;20029;-67
2022/11/29 00:09:39;;;;;;;33.63;14.35;;;;;;;;;;5058053;28;20024;-68
2022/11/29 00:12:13;;;;;;;36.95;14.73;;;;;;;;;;5068933;28;20027;-65
2022/11/29 00:14:39;;;;;;;32.35;13.43;;;;;;;;;;5057023;28;20021;-66
2022/11/29 00:17:04;;;;;;;28.88;14.40;;;;;;;;;;5062160;28;20028;-66
2022/11/29 00:19:31;;;;;;;29.23;13.52;;;;;;;;;;5049098;28;20013;-67
2022/11/29 00:21:56;;;;;;;29.15;14.20;;;;;;;;;;5048218;28;20036;-65
2022/11/29 00:24:21;;;;;;;37.38;15.18;;;;;;;;;;5052213;28;20104;-69
2022/11/29 00:26:47;;;;;;;38.20;16.63;;;;;;;;;;5046753;28;20100;-65
2022/11/29 00:29:12;;;;;;;33.42;15.65;;;;;;;;;;5053811;28;20025;-64
2022/11/29 00:31:37;;;;;;;30.13;14.60;;;;;;;;;;5048550;28;20028;-67
2022/11/29 00:34:03;;;;;;;38.88;16.35;;;;;;;;;;5048868;28;20009;-64
2022/11/29 00:36:29;;;;;;;36.08;15.75;;;;;;;;;;5059448;28;20013;-66
2022/11/29 00:38:54;;;;;;;36.70;16.30;;;;;;;;;;5051520;28;20094;-67
2022/11/29 00:41:19;;;;;;;39.83;16.05;;;;;;;;;;5048635;28;20099;-66
2022/11/29 00:43:45;;;;;;;39.63;16.20;;;;;;;;;;5048630;28;20025;-64
2022/11/29 00:46:10;;;;;;;34.05;14.57;;;;;;;;;;5048713;28;20017;-67
2022/11/29 00:48:36;;;;;;;35.80;16.42;;;;;;;;;;5047542;28;20029;-65
2022/11/29 00:51:01;;;;;;;33.90;15.98;;;;;;;;;;5046814;28;20705;-65
2022/11/29 00:53:26;;;;;;;42.58;16.50;;;;;;;;;;5046969;28;20044;-68
2022/11/29 00:55:52;;;;;;;38.88;16.63;;;;;;;;;;5055492;28;20450;-66
2022/11/29 00:58:18;;;;;;;36.45;15.88;;;;;;;;;;5048020;28;20093;-68
2022/11/29 01:00:43;;;;;;;39.15;17.17;;;;;;;;;;5049757;28;20032;-67
2022/11/29 01:03:08;;;;;;;37.90;16.05;;;;;;;;;;5048326;28;20027;-67
2022/11/29 01:05:33;;;;;;;38.72;15.65;;;;;;;;;;5047663;28;20021;-66
2022/11/29 01:07:59;;;;;;;33.63;14.95;;;;;;;;;;5047308;28;20086;-69
2022/11/29 01:10:24;;;;;;;34.67;16.05;;;;;;;;;;5061390;28;20036;-66
2022/11/29 01:12:49;;;;;;;36.65;17.20;;;;;;;;;;5059434;28;20033;-67
2022/11/29 01:15:15;;;;;;;33.42;14.68;;;;;;;;;;5053411;28;20134;-66
2022/11/29 01:17:40;;;;;;;38.10;17.02;;;;;;;;;;5056645;28;20017;-66
2022/11/29 01:20:07;;;;;;;42.67;17.08;;;;;;;;;;5048291;28;20096;-69
2022/11/29 01:22:33;;;;;;;38.58;17.52;;;;;;;;;;5048005;28;20013;-67
2022/11/29 01:24:58;;;;;;;38.13;17.05;;;;;;;;;;5047780;28;20084;-67
2022/11/29 01:27:23;;;;;;;45.55;16.70;;;;;;;;;;5048166;28;20021;-67
2022/11/29 01:29:48;;;;;;;37.40;15.88;;;;;;;;;;5061635;28;20458;-66
2022/11/29 01:32:14;;;;;;;39.75;16.60;;;;;;;;;;5047945;28;20009;-66
2022/11/29 01:34:39;;;;;;;39.45;17.02;;;;;;;;;;5061293;28;20493;-64
2022/11/29 01:37:04;;;;;;;47.15;16.90;;;;;;;;;;5047725;28;20359;-67
2022/11/29 01:39:30;;;;;;;38.20;16.80;;;;;;;;;;5061097;28;20071;-65
2022/11/29 01:41:55;;;;;;;39.90;16.95;;;;;;;;;;5048149;28;20120;-67
2022/11/29 01:44:20;;;;;;;41.42;17.35;;;;;;;;;;5051742;28;20466;-64
2022/11/29 01:46:46;;;;;;;37.17;16.85;;;;;;;;;;5045842;28;20087;-66
2022/11/29 01:49:23;;;;;;;36.05;15.80;;;;;;;;;;5047211;28;20013;-66
2022/11/29 01:52:15;;;;;;;36.00;15.48;;;;;;;;;;5047396;28;20044;-67
2022/11/29 01:54:41;;;;;;;38.97;15.52;;;;;;;;;;5044070;28;20397;-67
2022/11/29 01:57:08;;;;;;;42.17;17.25;;;;;;;;;;5054157;28;20021;-65
2022/11/29 01:59:35;;;;;;;35.70;16.58;;;;;;;;;;5058842;28;20025;-67
2022/11/29 02:02:05;;;;;;;45.92;17.00;;;;;;;;;;5061149;28;20100;-67
2022/11/29 02:04:32;;;;;;;39.97;16.25;;;;;;;;;;5056641;28;20168;-67
2022/11/29 02:06:57;;;;;;;41.88;17.02;;;;;;;;;;5051278;28;20021;-67
2022/11/29 02:09:23;;;;;;;37.13;16.20;;;;;;;;;;5056995;28;20097;-67
2022/11/29 02:11:54;;;;;;;33.75;15.38;;;;;;;;;;5054135;28;20036;-66
2022/11/29 02:14:36;;;;;;;33.03;14.30;;;;;;;;;;5057823;28;20017;-65
2022/11/29 02:17:20;;;;;;;32.63;15.32;;;;;;;;;;5059375;28;20029;-66
2022/11/29 02:19:48;;;;;;;36.28;15.57;;;;;;;;;;5064544;28;20603;-66
2022/11/29 02:22:19;;;;;;;33.42;14.45;;;;;;;;;;5059197;28;20020;-66
2022/11/29 02:24:56;;;;;;;40.00;15.55;;;;;;;;;;5069301;28;20099;-65
2022/11/29 02:27:34;;;;;;;32.17;14.52;;;;;;;;;;5053361;28;20021;-67
2022/11/29 02:30:05;;;;;;;31.17;15.05;;;;;;;;;;5064338;28;20101;-66
2022/11/29 02:32:52;;;;;;;30.98;15.30;;;;;;;;;;5058957;28;20103;-67
2022/11/29 02:35:36;;;;;;;31.10;14.68;;;;;;;;;;5047817;28;20017;-65
2022/11/29 02:38:19;;;;;;;31.83;14.20;;;;;;;;;;5057241;28;20029;-67
2022/11/29 02:41:03;;;;;;;33.05;13.82;;;;;;;;;;5058119;28;20025;-66
2022/11/29 02:43:31;;;;;;;28.63;14.05;;;;;;;;;;5048475;28;20039;-66
2022/11/29 02:45:56;;;;;;;31.93;14.53;;;;;;;;;;5052745;28;20018;-67
2022/11/29 02:49:00;;;;;;;30.67;13.43;;;;;;;;;;5055457;28;20352;-67
2022/11/29 02:51:38;;;;;;;33.20;14.30;;;;;;;;;;5017398;28;20191;-68
2022/11/29 02:54:03;;;;;;;36.70;14.50;;;;;;;;;;5028175;28;20036;-66
2022/11/29 02:56:43;;;;;;;33.72;13.98;;;;;;;;;;5039997;28;20025;-66
2022/11/29 02:59:27;;;;;;;35.70;14.93;;;;;;;;;;5064423;28;20104;-68
2022/11/29 03:01:52;;;;;;;37.35;16.63;;;;;;;;;;5050505;28;20478;-66
2022/11/29 03:04:37;;;;;;;30.67;14.43;;;;;;;;;;5054983;28;20056;-67
2022/11/29 03:07:12;;;;;;;30.95;14.45;;;;;;;;;;5049999;28;20028;-67
2022/11/29 03:09:43;;;;;;;34.03;14.50;;;;;;;;;;5061317;28;20046;-68
2022/11/29 03:12:24;;;;;;;28.02;13.40;;;;;;;;;;5056903;28;20124;-66
2022/11/29 03:14:56;;;;;;;37.20;14.20;;;;;;;;;;5055923;28;20027;-67
2022/11/29 03:17:47;;;;;;;26.20;13.48;;;;;;;;;;5044617;28;20604;-66
2022/11/29 03:20:21;;;;;;;33.25;14.60;;;;;;;;;;5056829;28;20017;-66
2022/11/29 03:23:00;;;;;;;31.15;14.57;;;;;;;;;;5058768;28;20606;-65
2022/11/29 03:25:31;;;;;;;39.20;14.65;;;;;;;;;;5055431;28;20021;-68
2022/11/29 03:28:00;;;;;;;31.85;15.52;;;;;;;;;;5055908;28;20032;-68
2022/11/29 03:30:25;;;;;;;36.85;14.75;;;;;;;;;;5050638;28;20023;-68
2022/11/29 03:32:50;;;;;;;33.42;15.32;;;;;;;;;;5049965;28;20516;-65
2022/11/29 03:35:16;;;;;;;28.85;12.80;;;;;;;;;;5057530;28;20060;-68
2022/11/29 03:37:52;;;;;;;31.17;15.00;;;;;;;;;;5056106;28;20463;-67
2022/11/29 03:40:20;;;;;;;32.20;14.95;;;;;;;;;;5050317;28;20017;-67
2022/11/29 03:43:05;;;;;;;26.63;13.95;;;;;;;;;;5063146;28;20035;-67
2022/11/29 03:45:35;;;;;;;32.72;14.40;;;;;;;;;;5049675;28;20070;-67
2022/11/29 03:48:24;;;;;;;33.40;14.70;;;;;;;;;;5052809;28;20021;-67
2022/11/29 03:50:58;;;;;;;36.40;14.63;;;;;;;;;;5049635;28;20037;-66
2022/11/29 03:53:29;;;;;;;30.73;14.10;;;;;;;;;;5059471;28;20043;-67
2022/11/29 03:55:59;;;;;;;31.08;14.05;;;;;;;;;;5056328;28;20047;-68
2022/11/29 03:58:30;;;;;;;31.95;14.88;;;;;;;;;;5057466;28;20017;-69
2022/11/29 04:00:59;;;;;;;35.10;14.50;;;;;;;;;;5050143;28;20384;-67
2022/11/29 04:03:27;;;;;;;33.17;13.77;;;;;;;;;;5062965;28;20339;-66
2022/11/29 04:06:01;;;;;;;36.42;15.38;;;;;;;;;;5036979;28;20731;-66
2022/11/29 04:08:32;;;;;;;30.30;14.77;;;;;;;;;;5050760;28;20718;-68
2022/11/29 04:11:33;;;;;;;30.00;14.18;;;;;;;;;;5061118;28;20106;-66
2022/11/29 04:14:17;;;;;;;32.25;14.07;;;;;;;;;;4994211;28;20120;-65
2022/11/29 04:16:45;;;;;;;34.45;15.23;;;;;;;;;;5050518;28;20021;-66
2022/11/29 04:19:29;;;;;;;35.28;14.98;;;;;;;;;;5059364;28;20120;-66
2022/11/29 04:22:00;;;;;;;38.88;14.48;;;;;;;;;;5049248;28;20025;-65
2022/11/29 04:24:44;;;;;;;35.08;14.82;;;;;;;;;;5048919;28;20048;-65
2022/11/29 04:27:18;;;;;;;28.77;13.75;;;;;;;;;;5042358;28;20017;-65
2022/11/29 04:29:49;;;;;;;33.53;14.82;;;;;;;;;;5052829;28;20021;-65
2022/11/29 04:32:17;;;;;;;35.83;14.65;;;;;;;;;;5057933;28;20102;-66
2022/11/29 04:34:57;;;;;;;29.02;14.15;;;;;;;;;;5061625;28;20088;-67
2022/11/29 04:37:28;;;;;;;33.85;14.75;;;;;;;;;;5048443;28;20437;-66
2022/11/29 04:39:53;;;;;;;34.22;14.82;;;;;;;;;;5042696;28;20012;-66
2022/11/29 04:42:19;;;;;;;33.47;14.80;;;;;;;;;;5054519;28;20027;-67
2022/11/29 04:45:04;;;;;;;33.33;15.95;;;;;;;;;;5048139;28;20112;-66
2022/11/29 04:47:35;;;;;;;31.52;14.95;;;;;;;;;;5045938;28;20029;-68
2022/11/29 04:50:06;;;;;;;31.17;15.40;;;;;;;;;;5058825;28;20055;-67
2022/11/29 04:52:34;;;;;;;29.52;13.45;;;;;;;;;;5050737;28;20017;-69
2022/11/29 04:55:11;;;;;;;34.30;14.82;;;;;;;;;;5047902;28;20025;-67
2022/11/29 04:57:46;;;;;;;34.47;15.55;;;;;;;;;;5062973;28;20071;-65
2022/11/29 05:00:12;;;;;;;36.15;15.05;;;;;;;;;;5060058;28;20035;-67
2022/11/29 05:02:37;;;;;;;36.05;15.45;;;;;;;;;;5054299;28;20013;-67
2022/11/29 05:05:14;;;;;;;30.70;14.85;;;;;;;;;;5054082;28;20013;-67
2022/11/29 05:07:39;;;;;;;31.15;14.80;;;;;;;;;;5048706;28;20024;-68
2022/11/29 05:10:17;;;;;;;34.35;15.52;;;;;;;;;;5061677;28;20422;-65
2022/11/29 05:13:08;;;;;;;31.02;15.05;;;;;;;;;;5048800;28;20092;-64
2022/11/29 05:15:57;;;;;;;32.50;14.60;;;;;;;;;;5012042;28;20032;-64
2022/11/29 05:18:32;;;;;;;32.80;14.68;;;;;;;;;;5051259;28;21229;-67
2022/11/29 05:21:08;;;;;;;32.47;15.40;;;;;;;;;;5057228;28;20130;-65
2022/11/29 05:23:39;;;;;;;36.25;15.05;;;;;;;;;;5060394;28;20540;-66
2022/11/29 05:26:09;;;;;;;29.73;14.07;;;;;;;;;;5047529;28;20126;-65
2022/11/29 05:28:52;;;;;;;30.33;14.50;;;;;;;;;;5047598;28;20021;-66
2022/11/29 05:31:33;;;;;;;32.28;14.65;;;;;;;;;;5061237;28;20033;-68
2022/11/29 05:34:16;;;;;;;32.35;13.60;;;;;;;;;;5048862;28;20017;-66
2022/11/29 05:36:41;;;;;;;30.75;14.98;;;;;;;;;;5035579;28;20082;-68
2022/11/29 05:39:25;;;;;;;33.10;14.80;;;;;;;;;;5045894;28;20051;-64
2022/11/29 05:42:04;;;;;;;34.45;14.35;;;;;;;;;;5044884;28;20478;-66
2022/11/29 05:44:29;;;;;;;31.15;14.80;;;;;;;;;;5060603;28;20025;-64
2022/11/29 05:47:00;;;;;;;31.08;14.57;;;;;;;;;;5043161;28;20024;-65
2022/11/29 05:49:33;;;;;;;29.42;14.38;;;;;;;;;;5051593;28;20394;-67
2022/11/29 05:52:02;;;;;;;33.35;14.48;;;;;;;;;;5050792;28;20071;-67
2022/11/29 05:54:27;;;;;;;32.88;14.45;;;;;;;;;;5044611;28;20025;-67
2022/11/29 05:56:55;;;;;;;30.20;14.43;;;;;;;;;;5057748;28;20021;-65
2022/11/29 05:59:22;;;;;;;38.92;15.10;;;;;;;;;;5051703;28;20021;-66
2022/11/29 06:01:54;;;;;;;30.90;14.63;;;;;;;;;;5051375;28;20029;-67
2022/11/29 06:04:28;;;;;;;27.10;13.27;;;;;;;;;;5051703;28;20029;-68
2022/11/29 06:06:56;;;;;;;32.10;15.32;;;;;;;;;;5047392;28;20085;-67
2022/11/29 06:09:24;;;;;;;33.45;12.77;;;;;;;;;;5051633;28;20048;-66
2022/11/29 06:11:53;;;;;;;31.38;13.80;;;;;;;;;;5059213;28;20558;-67
2022/11/29 06:14:27;;;;;;;32.55;14.45;;;;;;;;;;5060660;28;20529;-66
2022/11/29 06:17:05;;;;;;;27.98;13.40;;;;;;;;;;5050622;28;20042;-67
2022/11/29 06:19:48;;;;;;;28.92;13.07;;;;;;;;;;5051113;28;20249;-66
2022/11/29 06:22:32;;;;;;;26.92;14.43;;;;;;;;;;5053418;28;20389;-66
2022/11/29 06:25:16;;;;;;;31.25;13.88;;;;;;;;;;5052853;28;20094;-67
2022/11/29 06:28:00;;;;;;;29.58;13.82;;;;;;;;;;5049331;28;20096;-68
2022/11/29 06:30:28;;;;;;;31.20;13.57;;;;;;;;;;5045675;28;20108;-66
2022/11/29 06:33:00;;;;;;;24.80;13.43;;;;;;;;;;5044482;28;20407;-67
2022/11/29 06:35:37;;;;;;;31.83;14.95;;;;;;;;;;5047034;28;20082;-66
2022/11/29 06:38:12;;;;;;;29.40;12.55;;;;;;;;;;5040510;28;20317;-66
2022/11/29 06:40:38;;;;;;;35.85;15.07;;;;;;;;;;5042257;28;20497;-65
2022/11/29 06:43:03;;;;;;;38.65;15.65;;;;;;;;;;5043167;28;20036;-66
2022/11/29 06:45:28;;;;;;;29.13;13.73;;;;;;;;;;5048246;28;20033;-67
2022/11/29 06:48:00;;;;;;;33.45;14.60;;;;;;;;;;5042728;28;20120;-68
2022/11/29 06:50:37;;;;;;;32.85;14.35;;;;;;;;;;5043942;28;20017;-66
2022/11/29 06:53:03;;;;;;;32.05;14.32;;;;;;;;;;5042645;28;20036;-66
2022/11/29 06:55:37;;;;;;;29.27;13.15;;;;;;;;;;5043535;28;20636;-65
2022/11/29 06:58:02;;;;;;;33.45;14.02;;;;;;;;;;5042749;28;20029;-66
2022/11/29 07:00:34;;;;;;;30.10;14.68;;;;;;;;;;5042367;28;20098;-66
2022/11/29 07:03:05;;;;;;;28.95;13.60;;;;;;;;;;5042701;28;20038;-67
2022/11/29 07:05:34;;;;;;;29.52;13.15;;;;;;;;;;5043451;28;20040;-67
2022/11/29 07:08:03;;;;;;;36.90;14.82;;;;;;;;;;5042983;28;20052;-67
2022/11/29 07:10:30;;;;;;;41.13;19.48;;;;;;;;;;5042586;28;20036;-64
2022/11/29 07:12:55;;;;;;;30.35;13.32;;;;;;;;;;5042137;28;20024;-65
2022/11/29 07:15:21;;;;;;;33.20;13.35;;;;;;;;;;5043953;28;20021;-66
2022/11/29 07:17:58;;;;;;;26.83;12.85;;;;;;;;;;5040784;28;20036;-65
2022/11/29 07:20:26;;;;;;;25.83;12.32;;;;;;;;;;5040531;28;20108;-68
2022/11/29 07:23:01;;;;;;;27.40;11.88;;;;;;;;;;5044881;28;20126;-67
2022/11/29 07:25:26;;;;;;;25.52;12.98;;;;;;;;;;5040679;28;20025;-67
2022/11/29 07:28:03;;;;;;;27.50;13.38;;;;;;;;;;5040689;28;20094;-65
2022/11/29 07:30:48;;;;;;;25.45;12.85;;;;;;;;;;5044048;28;20017;-67
2022/11/29 07:33:13;;;;;;;30.63;12.88;;;;;;;;;;5038979;28;20021;-66
2022/11/29 07:35:44;;;;;;;31.42;12.07;;;;;;;;;;5042662;28;20009;-67
2022/11/29 07:38:20;;;;;;;31.23;13.07;;;;;;;;;;5041381;28;20041;-67
2022/11/29 07:40:58;;;;;;;27.75;13.30;;;;;;;;;;5041600;28;20025;-64
2022/11/29 07:43:26;;;;;;;27.90;12.00;;;;;;;;;;5042801;28;20025;-66
2022/11/29 07:45:52;;;;;;;37.20;12.13;;;;;;;;;;5043602;28;20024;-67
2022/11/29 07:48:18;;;;;;;27.95;13.38;;;;;;;;;;5042926;28;20025;-66
2022/11/29 07:50:43;;;;;;;38.80;13.23;;;;;;;;;;5041224;28;20072;-67
2022/11/29 07:53:15;;;;;;;25.33;13.65;;;;;;;;;;5042742;28;20079;-65
2022/11/29 07:55:41;;;;;;;27.42;12.77;;;;;;;;;;5040419;28;20513;-67
2022/11/29 07:58:09;;;;;;;31.30;13.40;;;;;;;;;;5044216;28;20127;-65
2022/11/29 08:00:34;;;;;;;33.50;14.20;;;;;;;;;;5042773;28;20070;-67
2022/11/29 08:02:59;;;;;;;29.00;12.77;;;;;;;;;;5040772;28;20393;-67
2022/11/29 08:05:24;;;;;;;33.15;14.23;;;;;;;;;;5041225;28;20358;-68
2022/11/29 08:07:50;;;;;;;30.58;13.68;;;;;;;;;;5049702;28;20878;-65
2022/11/29 08:10:16;;;;;;;37.47;13.98;;;;;;;;;;5049666;28;20117;-67
2022/11/29 08:12:46;;;;;;;29.23;12.63;;;;;;;;;;5049362;28;20012;-67
2022/11/29 08:15:12;;;;;;;28.33;13.48;;;;;;;;;;5048803;28;20028;-67
2022/11/29 08:17:37;;;;;;;27.67;13.15;;;;;;;;;;5048796;28;20021;-66
2022/11/29 08:20:03;;;;;;;28.15;12.60;;;;;;;;;;5048450;28;20448;-67
2022/11/29 08:22:29;;;;;;;29.45;13.20;;;;;;;;;;5043004;28;20104;-67
2022/11/29 08:24:54;;;;;;;29.27;13.93;;;;;;;;;;5048736;28;20389;-67
2022/11/29 08:27:19;;;;;;;24.83;12.30;;;;;;;;;;5045758;28;20083;-65
2022/11/29 08:29:44;;;;;;;28.73;13.13;;;;;;;;;;5052048;28;20405;-68
2022/11/29 08:32:10;;;;;;;27.25;13.60;;;;;;;;;;5048979;28;20025;-67
2022/11/29 08:34:35;;;;;;;26.38;13.18;;;;;;;;;;5048484;28;20013;-67
2022/11/29 08:37:00;;;;;;;28.35;14.02;;;;;;;;;;5047767;28;20390;-67
2022/11/29 08:39:25;;;;;;;38.20;13.45;;;;;;;;;;5048814;28;20502;-65
2022/11/29 08:41:51;;;;;;;26.92;12.93;;;;;;;;;;5048627;28;20021;-67
2022/11/29 08:44:17;;;;;;;26.42;13.30;;;;;;;;;;5061997;28;20458;-66
2022/11/29 08:49:26;;;;;;;30.95;14.23;;;;;;;;;;5047640;28;20162;-68
2022/11/29 08:53:39;;;;;;;26.08;13.82;;;;;;;;;;5059934;28;20016;-69
2022/11/29 08:54:36;;;;;;;32.90;15.27;;;;;;;;;;5039938;28;20108;-68
2022/11/29 08:57:01;;;;;;;35.40;15.10;;;;;;;;;;5060144;28;20108;-67
2022/11/29 08:59:27;;;;;;;34.42;13.82;;;;;;;;;;5055615;28;20025;-67
2022/11/29 09:01:52;;;;;;;27.55;13.35;;;;;;;;;;5048576;28;20036;-68
2022/11/29 09:04:17;;;;;;;23.70;13.63;;;;;;;;;;5061386;28;20074;-67
2022/11/29 09:06:43;;;;;;;29.60;14.82;;;;;;;;;;5053639;28;20406;-66
2022/11/29 09:09:08;;;;;;;33.90;13.45;;;;;;;;;;5046678;28;20087;-66
2022/11/29 09:11:34;;;;;;;27.70;13.35;;;;;;;;;;5050239;28;20075;-67
2022/11/29 09:14:00;;;;;;;30.58;12.70;;;;;;;;;;5053938;28;20490;-65
2022/11/29 09:16:27;;;;;;;26.98;13.38;;;;;;;;;;5049137;28;20055;-68
2022/11/29 09:18:54;;;;;;;30.38;13.73;;;;;;;;;;5060356;28;20035;-67
2022/11/29 09:21:20;;;;;;;29.83;13.40;;;;;;;;;;5064988;28;20025;-65
2022/11/29 09:23:45;;;;;;;22.90;12.38;;;;;;;;;;5051935;28;20073;-67
2022/11/29 09:26:15;;;;;;;22.33;12.38;;;;;;;;;;5060317;28;20114;-66
2022/11/29 09:28:40;;;;;;;22.90;12.23;;;;;;;;;;5035634;28;20036;-66
2022/11/29 09:31:06;;;;;;;20.73;11.75;;;;;;;;;;5047879;28;20045;-66
2022/11/29 09:33:31;;;;;;;25.58;12.68;;;;;;;;;;5054828;28;20065;-68
2022/11/29 09:35:57;;;;;;;25.88;13.05;;;;;;;;;;5054910;28;20547;-67
2022/11/29 09:38:22;;;;;;;23.98;12.52;;;;;;;;;;5039519;28;20096;-66
2022/11/29 09:40:50;;;;;;;23.17;12.13;;;;;;;;;;5052482;28;20024;-66
2022/11/29 09:43:34;;;;;;;23.07;12.47;;;;;;;;;;5055525;28;20028;-68
2022/11/29 09:46:14;;;;;;;23.13;12.93;;;;;;;;;;5041361;28;20024;-68
2022/11/29 09:48:49;;;;;;;23.58;11.02;;;;;;;;;;5046157;28;20021;-67
2022/11/29 09:51:14;;;;;;;24.27;12.38;;;;;;;;;;5058218;28;20047;-68
2022/11/29 09:53:49;;;;;;;23.00;11.77;;;;;;;;;;5052289;28;20412;-67
2022/11/29 09:56:27;;;;;;;22.75;11.05;;;;;;;;;;5052705;28;20442;-67
2022/11/29 09:58:56;;;;;;;20.85;11.00;;;;;;;;;;5047567;28;20021;-67
2022/11/29 10:01:21;;;;;;;;;;;;;;;;;;5052081;28;20025;-66
2022/11/29 10:03:50;;;;;;;24.55;11.15;;;;;;;;;;5048881;28;19913;-66
2022/11/29 10:06:15;;;;;;;;;;;;;;;;;;5050094;28;20265;-67
2022/11/29 10:08:46;;;;;;;27.23;13.00;;;;;;;;;;5049312;28;19913;-66
2022/11/29 10:11:21;;;;;;;21.65;11.98;;;;;;;;;;5047836;28;20597;-66
2022/11/29 10:13:50;;;;;;;28.55;11.68;;;;;;;;;;5047944;28;20256;-69
2022/11/29 10:16:38;;;;;;;23.33;11.38;;;;;;;;;;5060425;28;20016;-66
2022/11/29 10:19:08;;;;;;;19.30;10.20;;;;;;;;;;5042295;28;20132;-64
2022/11/29 10:21:35;;;;;;;33.35;11.25;;;;;;;;;;5047955;28;20044;-65
2022/11/29 10:24:03;;;;;;;20.88;11.13;;;;;;;;;;5038303;28;20123;-67
2022/11/29 10:26:28;;;;;;;23.67;11.32;;;;;;;;;;5050029;28;20029;-66
2022/11/29 10:28:56;;;;;;;27.02;11.65;;;;;;;;;;5051267;28;20087;-65
2022/11/29 10:31:26;;;;;;;31.80;12.65;;;;;;;;;;5050483;28;20077;-66
2022/11/29 10:33:52;;;;;;;29.40;12.85;;;;;;;;;;5046189;28;20017;-66
2022/11/29 10:36:20;;;;;;;36.78;15.00;;;;;;;;;;5047787;28;20052;-65
2022/11/29 10:38:46;;;;;;;35.75;14.98;;;;;;;;;;5048180;28;20028;-65
2022/11/29 10:41:14;;;;;;;30.55;13.90;;;;;;;;;;5057377;28;20040;-66
2022/11/29 10:43:40;;;;;;;27.60;12.27;;;;;;;;;;5057334;28;20082;-66
2022/11/29 10:46:11;;;;;;;26.15;12.20;;;;;;;;;;5054074;28;20024;-64
2022/11/29 10:48:36;;;;;;;24.02;11.68;;;;;;;;;;5049787;28;20687;-66
2022/11/29 10:51:01;;;;;;;24.95;11.45;;;;;;;;;;5057918;28;20104;-67
2022/11/29 10:53:30;;;;;;;25.60;12.80;;;;;;;;;;5057256;28;20104;-65
2022/11/29 10:55:59;;;;;;;28.27;12.43;;;;;;;;;;5063079;28;20021;-67
2022/11/29 10:58:25;;;;;;;23.02;11.60;;;;;;;;;;5051619;28;20602;-67
2022/11/29 11:00:56;;;;;;;33.47;11.85;;;;;;;;;;5059719;28;20115;-66
2022/11/29 11:03:31;;;;;;;23.85;11.63;;;;;;;;;;5055273;28;20116;-66
2022/11/29 11:06:04;;;;;;;21.75;11.35;;;;;;;;;;5045981;28;20024;-68
2022/11/29 11:08:30;;;;;;;20.63;10.27;;;;;;;;;;5055468;28;20060;-65
2022/11/29 11:10:56;;;;;;;20.33;10.30;;;;;;;;;;5066365;28;20012;-67
2022/11/29 11:13:26;;;;;;;24.08;12.48;;;;;;;;;;5053346;28;20708;-68
2022/11/29 11:15:56;;;;;;;25.30;12.07;;;;;;;;;;5050340;28;20108;-66
2022/11/29 11:18:24;;;;;;;26.52;11.90;;;;;;;;;;5049715;28;20044;-67
2022/11/29 11:20:54;;;;;;;23.13;11.53;;;;;;;;;;5050628;28;20036;-67
2022/11/29 11:23:20;;;;;;;33.50;13.02;;;;;;;;;;5054542;28;20103;-68
2022/11/29 11:25:48;;;;;;;23.05;12.02;;;;;;;;;;5058278;28;20100;-67
2022/11/29 11:28:14;;;;;;;21.63;11.32;;;;;;;;;;5053621;28;20021;-66
2022/11/29 11:30:47;;;;;;;25.52;10.70;;;;;;;;;;5054462;28;20085;-67
2022/11/29 11:33:27;;;;;;;21.83;10.43;;;;;;;;;;5047701;28;20390;-66
2022/11/29 11:36:01;;;;;;;25.15;11.02;;;;;;;;;;5059072;28;20123;-66
2022/11/29 11:38:27;;;;;;;23.58;10.45;;;;;;;;;;5058909;28;20027;-67
2022/11/29 11:41:10;;;;;;;21.08;10.88;;;;;;;;;;5053566;28;20021;-68
2022/11/29 11:43:36;;;;;;;22.40;10.73;;;;;;;;;;5049042;28;20499;-66
2022/11/29 11:46:01;;;;;;;21.55;10.07;;;;;;;;;;5049595;28;20051;-66
2022/11/29 11:48:27;;;;;;;21.35;10.57;;;;;;;;;;5048032;28;20036;-65
2022/11/29 11:50:53;;;;;;;24.13;12.27;;;;;;;;;;5048104;28;20032;-69
2022/11/29 11:53:18;;;;;;;24.30;11.80;;;;;;;;;;5055181;28;20029;-67
2022/11/29 11:55:52;;;;;;;20.52;10.18;;;;;;;;;;5047956;28;20464;-66
2022/11/29 11:58:20;;;;;;;19.10;9.65;;;;;;;;;;5046404;28;20111;-66
2022/11/29 12:00:50;;;;;;;24.35;11.35;;;;;;;;;;5047509;28;20116;-67
2022/11/29 12:03:22;;;;;;;22.67;11.35;;;;;;;;;;5048666;28;20062;-68
2022/11/29 12:05:48;;;;;;;19.08;9.35;;;;;;;;;;5045059;28;20032;-69
2022/11/29 12:08:14;;;;;;;23.58;11.45;;;;;;;;;;5048687;28;20013;-67
2022/11/29 12:10:40;;;;;;;22.83;11.52;;;;;;;;;;5053419;28;20104;-64
2022/11/29 12:13:11;;;;;;;26.85;11.57;;;;;;;;;;5063183;28;20091;-67
2022/11/29 12:15:39;;;;;;;21.25;10.82;;;;;;;;;;5049813;28;20047;-68
2022/11/29 12:18:11;;;;;;;24.70;11.35;;;;;;;;;;5048956;28;20025;-68
2022/11/29 12:20:56;;;;;;;22.65;11.82;;;;;;;;;;5061066;28;20031;-67
2022/11/29 12:23:40;;;;;;;20.17;10.23;;;;;;;;;;5044778;28;20032;-68
2022/11/29 12:26:24;;;;;;;22.23;10.73;;;;;;;;;;5047101;28;20033;-64
2022/11/29 12:28:50;;;;;;;17.63;9.85;;;;;;;;;;5050071;28;20082;-66
2022/11/29 12:31:21;;;;;;;19.63;9.73;;;;;;;;;;5056870;28;20017;-67
2022/11/29 12:33:46;;;;;;;21.25;9.93;;;;;;;;;;5055200;28;20017;-68
2022/11/29 12:36:30;;;;;;;23.27;10.50;;;;;;;;;;5058428;28;20024;-67
2022/11/29 12:39:01;;;;;;;20.88;11.27;;;;;;;;;;5051612;28;20027;-65
2022/11/29 12:41:26;;;;;;;18.85;10.70;;;;;;;;;;5048227;28;20049;-67
2022/11/29 12:44:10;;;;;;;32.22;11.13;;;;;;;;;;5049700;28;20068;-65
2022/11/29 12:46:37;;;;;;;21.92;10.70;;;;;;;;;;5050141;28;20039;-67
2022/11/29 12:49:21;;;;;;;18.35;9.25;;;;;;;;;;5049171;28;20013;-66
2022/11/29 12:51:49;;;;;;;20.80;10.30;;;;;;;;;;5045002;28;20088;-66
2022/11/29 12:54:14;;;;;;;18.58;9.75;;;;;;;;;;5037418;28;20131;-68
2022/11/29 12:57:09;;;;;;;20.13;10.65;;;;;;;;;;5042491;28;20051;-68
2022/11/29 12:59:43;;;;;;;27.00;10.18;;;;;;;;;;4960313;28;20070;-66
2022/11/29 13:02:11;;;;;;;18.58;10.70;;;;;;;;;;5047675;28;20391;-68
2022/11/29 13:04:42;;;;;;;17.97;9.73;;;;;;;;;;5054006;28;20020;-67
2022/11/29 13:07:26;;;;;;;19.88;9.93;;;;;;;;;;5045099;28;20561;-68
2022/11/29 13:09:58;;;;;;;20.13;10.63;;;;;;;;;;5042816;28;20049;-67
2022/11/29 13:12:23;;;;;;;26.40;12.25;;;;;;;;;;5049862;28;20037;-68
2022/11/29 13:15:04;;;;;;;17.65;10.10;;;;;;;;;;5045726;28;20494;-64
2022/11/29 13:17:33;;;;;;;23.05;10.70;;;;;;;;;;5049599;28;20390;-68
2022/11/29 13:20:07;;;;;;;20.52;10.38;;;;;;;;;;5059045;28;20107;-67
2022/11/29 13:22:45;;;;;;;21.55;10.35;;;;;;;;;;5048675;28;20171;-67
2022/11/29 13:25:36;;;;;;;19.50;10.50;;;;;;;;;;5053259;28;20016;-65
2022/11/29 13:28:04;;;;;;;22.42;10.65;;;;;;;;;;5041987;28;20032;-68
2022/11/29 13:30:29;;;;;;;23.20;10.95;;;;;;;;;;5047598;28;20084;-66
2022/11/29 13:32:54;;;;;;;25.92;11.55;;;;;;;;;;5048000;28;20017;-66
2022/11/29 13:35:29;;;;;;;21.38;10.52;;;;;;;;;;5060269;28;20048;-67
2022/11/29 13:37:57;;;;;;;18.73;9.75;;;;;;;;;;5047664;28;20114;-67
2022/11/29 13:40:23;;;;;;;18.27;9.88;;;;;;;;;;5056163;28;20086;-67
2022/11/29 13:42:50;;;;;;;21.08;10.27;;;;;;;;;;5053267;28;20037;-65
2022/11/29 13:45:15;;;;;;;29.55;9.98;;;;;;;;;;5047154;28;20036;-64
2022/11/29 13:47:47;;;;;;;17.73;10.00;;;;;;;;;;5047603;28;20455;-67
2022/11/29 13:50:31;;;;;;;24.27;10.65;;;;;;;;;;5041837;28;20033;-67
2022/11/29 13:53:12;;;;;;;22.83;12.32;;;;;;;;;;5044554;28;20013;-66
2022/11/29 13:55:43;;;;;;;32.35;15.00;;;;;;;;;;5047132;28;20061;-67
2022/11/29 13:58:14;;;;;;;25.17;11.90;;;;;;;;;;5047702;28;20024;-65
2022/11/29 14:00:45;;;;;;;24.13;11.50;;;;;;;;;;5045906;28;20643;-68
2022/11/29 14:03:25;;;;;;;25.15;10.93;;;;;;;;;;5047389;28;20028;-67
2022/11/29 14:06:00;;;;;;;26.17;12.32;;;;;;;;;;5045961;28;20452;-66
2022/11/29 14:08:25;;;;;;;24.15;11.38;;;;;;;;;;5047421;28;20017;-65
2022/11/29 14:10:51;;;;;;;23.20;11.75;;;;;;;;;;5044817;28;20020;-67
2022/11/29 14:13:17;;;;;;;25.85;12.43;;;;;;;;;;5047986;28;20082;-65
2022/11/29 14:15:42;;;;;;;22.80;11.73;;;;;;;;;;5065623;28;20245;-68
2022/11/29 14:18:28;;;;;;;22.10;11.52;;;;;;;;;;5052099;28;20036;-66
2022/11/29 14:20:54;;;;;;;23.08;10.88;;;;;;;;;;5049696;28;20117;-67
2022/11/29 14:23:36;;;;;;;22.38;10.52;;;;;;;;;;5051738;28;20040;-65
2022/11/29 14:26:01;;;;;;;24.55;11.18;;;;;;;;;;5051096;28;20549;-64
2022/11/29 14:28:34;;;;;;;20.67;10.73;;;;;;;;;;5055687;28;20109;-68
2022/11/29 14:31:00;;;;;;;20.60;11.05;;;;;;;;;;5061235;28;20375;-68
2022/11/29 14:33:49;;;;;;;24.05;11.38;;;;;;;;;;5045440;28;20021;-66
2022/11/29 14:36:17;;;;;;;26.30;11.55;;;;;;;;;;5047899;28;20043;-65
2022/11/29 14:38:43;;;;;;;27.70;12.07;;;;;;;;;;5044969;28;20104;-67
2022/11/29 14:41:19;;;;;;;20.65;10.18;;;;;;;;;;5049425;28;20337;-66
2022/11/29 14:43:44;;;;;;;18.58;9.50;;;;;;;;;;5042947;28;20039;-66